sensor_id;sensor_type;location;lat;lon;timestamp;pressure;altitude;pressure_sealevel;temperature;humidity
46174;BME280;31897;52.420;13.498;2023-01-31T00:02:21;101000;;;1.82607;32.06717
46174;BME280;31897;52.420;13.498;2023-01-31T00:05:22;101000;;;1.7647;32.13173
46174;BME280;31897;52.420;13.498;2023-01-31T00:08:22;101000;;;1.7479;32.18974
46174;BME280;31897;52.420;13.498;2023-01-31T00:11:24;101000;;;1.8335;32.17677
46174;BME280;31897;52.420;13.498;2023-01-31T00:14:25;101000;;;1.76889;32.22404
46174;BME280;31897;52.420;13.498;2023-01-31T00:17:26;101000;;;1.81832;32.1597
46174;BME280;31897;52.420;13.498;2023-01-31T00:20:27;101000;;;1.78601;32.20066
46174;BME280;31897;52.420;13.498;2023-01-31T00:23:28;101000;;;1.61191;32.45172
46174;BME280;31897;52.420;13.498;2023-01-31T00:26:29;101000;;;1.66779;32.41619
46174;BME280;31897;52.420;13.498;2023-01-31T00:29:30;101000;;;1.64195;32.47433
46174;BME280;31897;52.420;13.498;2023-01-31T00:32:31;101000;;;1.64777;32.48
46174;BME280;31897;52.420;13.498;2023-01-31T00:35:33;101000;;;1.61127;32.4979
46174;BME280;31897;52.420;13.498;2023-01-31T00:38:33;101000;;;1.56863;32.4755
46174;BME280;31897;52.420;13.498;2023-01-31T00:41:35;101000;;;1.48885;32.55177
46174;BME280;31897;52.420;13.498;2023-01-31T00:44:36;101000;;;1.55054;32.54503
46174;BME280;31897;52.420;13.498;2023-01-31T00:47:37;101000;;;1.56863;32.41779
46174;BME280;31897;52.420;13.498;2023-01-31T00:50:38;101000;;;1.58123;32.49261
46174;BME280;31897;52.420;13.498;2023-01-31T00:53:39;101000;;;1.5738;32.48118
46174;BME280;31897;52.420;13.498;2023-01-31T00:56:40;101000;;;1.59415;32.48663
46174;BME280;31897;52.420;13.498;2023-01-31T00:59:40;101000;;;1.53407;32.53375
46174;BME280;31897;52.420;13.498;2023-01-31T01:02:41;101000;;;1.59382;32.42315
46174;BME280;31897;52.420;13.498;2023-01-31T01:05:42;101000;;;1.62968;32.51492
46174;BME280;31897;52.420;13.498;2023-01-31T01:08:43;101100;;;1.72497;32.45568
46174;BME280;31897;52.420;13.498;2023-01-31T01:11:44;101100;;;1.69493;32.46771
46174;BME280;31897;52.420;13.498;2023-01-31T01:14:45;101100;;;1.7957;32.33907
46174;BME280;31897;52.420;13.498;2023-01-31T01:17:46;101100;;;1.85223;32.27462
46174;BME280;31897;52.420;13.498;2023-01-31T01:20:47;101100;;;1.86321;32.25712
46174;BME280;31897;52.420;13.498;2023-01-31T01:23:48;101100;;;1.85869;32.20522
46174;BME280;31897;52.420;13.498;2023-01-31T01:26:49;101100;;;1.90133;32.07167
46174;BME280;31897;52.420;13.498;2023-01-31T01:29:50;101100;;;1.99597;31.99496
46174;BME280;31897;52.420;13.498;2023-01-31T01:32:53;101100;;;2.00857;31.89653
46174;BME280;31897;52.420;13.498;2023-01-31T01:35:54;101100;;;2.10095;31.85446
46174;BME280;31897;52.420;13.498;2023-01-31T01:38:59;101100;;;2.09675;31.75052
46174;BME280;31897;52.420;13.498;2023-01-31T01:42:00;101100;;;2.03732;31.75736
46174;BME280;31897;52.420;13.498;2023-01-31T01:45:01;101100;;;2.05573;31.73392
46174;BME280;31897;52.420;13.498;2023-01-31T01:48:03;101100;;;2.00534;31.78104
46174;BME280;31897;52.420;13.498;2023-01-31T01:51:05;101100;;;1.9543;31.89747
46174;BME280;31897;52.420;13.498;2023-01-31T01:54:08;101100;;;1.99694;31.85051
46174;BME280;31897;52.420;13.498;2023-01-31T01:57:11;101100;;;1.97853;31.76418
46174;BME280;31897;52.420;13.498;2023-01-31T02:00:15;101100;;;1.95236;31.89751
46174;BME280;31897;52.420;13.498;2023-01-31T02:03:18;101100;;;2.03344;31.78632
46174;BME280;31897;52.420;13.498;2023-01-31T02:06:19;101100;;;2.08189;31.81435
46174;BME280;31897;52.420;13.498;2023-01-31T02:09:21;101100;;;2.09352;31.68701
46174;BME280;31897;52.420;13.498;2023-01-31T02:12:25;101100;;;2.07866;31.71617
46174;BME280;31897;52.420;13.498;2023-01-31T02:15:27;101100;;;2.04442;31.80923
46174;BME280;31897;52.420;13.498;2023-01-31T02:18:27;101100;;;2.01955;31.879
46174;BME280;31897;52.420;13.498;2023-01-31T02:21:38;101100;;;1.995;32.01231
46174;BME280;31897;52.420;13.498;2023-01-31T02:24:49;101100;;;2.09126;32.01065
46174;BME280;31897;52.420;13.498;2023-01-31T02:27:59;101200;;;2.09481;31.99903
46174;BME280;31897;52.420;13.498;2023-01-31T02:31:14;101200;;;2.09804;31.91808
46174;BME280;31897;52.420;13.498;2023-01-31T02:34:20;101200;;;2.11064;31.96987
46174;BME280;31897;52.420;13.498;2023-01-31T02:37:26;101200;;;2.21465;31.95073
46174;BME280;31897;52.420;13.498;2023-01-31T02:40:31;101200;;;2.20431;31.81219
46174;BME280;31897;52.420;13.498;2023-01-31T02:43:38;101200;;;2.15392;31.72638
46174;BME280;31897;52.420;13.498;2023-01-31T02:46:44;101200;;;2.18364;31.70851
46174;BME280;31897;52.420;13.498;2023-01-31T02:49:50;101200;;;2.15069;31.78424
46174;BME280;31897;52.420;13.498;2023-01-31T02:52:55;101200;;;2.17072;31.73764
46174;BME280;31897;52.420;13.498;2023-01-31T02:55:59;101200;;;2.13551;31.74983
46174;BME280;31897;52.420;13.498;2023-01-31T02:59:01;101200;;;2.07834;31.83175
46174;BME280;31897;52.420;13.498;2023-01-31T03:02:04;101200;;;2.13099;31.77303
46174;BME280;31897;52.420;13.498;2023-01-31T03:05:05;101200;;;2.13099;31.77303
46174;BME280;31897;52.420;13.498;2023-01-31T03:08:06;101200;;;2.02407;31.85004
46174;BME280;31897;52.420;13.498;2023-01-31T03:11:07;101200;;;1.99403;31.891
46174;BME280;31897;52.420;13.498;2023-01-31T03:14:11;101200;;;1.86386;32.08963
46174;BME280;31897;52.420;13.498;2023-01-31T03:17:17;101200;;;1.91619;32.10607
46174;BME280;31897;52.420;13.498;2023-01-31T03:20:20;101200;;;1.90262;32.14673
46174;BME280;31897;52.420;13.498;2023-01-31T03:23:24;101200;;;1.76179;32.30498
46174;BME280;31897;52.420;13.498;2023-01-31T03:26:25;101200;;;1.7718;32.31637
46174;BME280;31897;52.420;13.498;2023-01-31T03:29:27;101200;;;1.74209;32.415
46174;BME280;31897;52.420;13.498;2023-01-31T03:32:29;101200;;;1.69493;32.50234
46174;BME280;31897;52.420;13.498;2023-01-31T03:35:30;101200;;;1.6665;32.57783
46174;BME280;31897;52.420;13.498;2023-01-31T03:38:35;101200;;;1.63646;32.64178
46174;BME280;31897;52.420;13.498;2023-01-31T03:41:43;101200;;;1.59479;32.72322
46174;BME280;31897;52.420;13.498;2023-01-31T03:44:48;101200;;;1.55119;32.83352
46174;BME280;31897;52.420;13.498;2023-01-31T03:47:50;101200;;;1.48981;32.94405
46174;BME280;31897;52.420;13.498;2023-01-31T03:50:54;101200;;;1.46365;33.03097
46174;BME280;31897;52.420;13.498;2023-01-31T03:53:57;101200;;;1.47431;33.06542
46174;BME280;31897;52.420;13.498;2023-01-31T03:57:01;101200;;;1.46527;33.129
46174;BME280;31897;52.420;13.498;2023-01-31T04:00:04;101200;;;1.52244;33.12818
46174;BME280;31897;52.420;13.498;2023-01-31T04:03:08;101200;;;1.48465;33.14603
46174;BME280;31897;52.420;13.498;2023-01-31T04:06:10;101200;;;1.44556;33.20427
46174;BME280;31897;52.420;13.498;2023-01-31T04:09:12;101200;;;1.36739;33.30918
46174;BME280;31897;52.420;13.498;2023-01-31T04:12:14;101200;;;1.27792;33.48914
46174;BME280;31897;52.420;13.498;2023-01-31T04:15:15;101300;;;1.29762;33.47735
46174;BME280;31897;52.420;13.498;2023-01-31T04:18:15;101300;;;1.21881;33.66286
46174;BME280;31897;52.420;13.498;2023-01-31T04:21:16;101300;;;1.16842;33.81913
46174;BME280;31897;52.420;13.498;2023-01-31T04:24:17;101300;;;1.14161;33.90591
46174;BME280;31897;52.420;13.498;2023-01-31T04:27:18;101300;;;1.0657;34.05089
46174;BME280;31897;52.420;13.498;2023-01-31T04:30:19;101200;;;1.04955;34.13174
46174;BME280;31897;52.420;13.498;2023-01-31T04:33:19;101200;;;1.05504;34.25841
46174;BME280;31897;52.420;13.498;2023-01-31T04:36:20;101200;;;1.02597;34.32211
46174;BME280;31897;52.420;13.498;2023-01-31T04:39:21;101300;;;1.04212;34.36801
46174;BME280;31897;52.420;13.498;2023-01-31T04:42:22;101300;;;0.97785;34.53001
46174;BME280;31897;52.420;13.498;2023-01-31T04:45:23;101300;;;0.97623;34.5761
46174;BME280;31897;52.420;13.498;2023-01-31T04:48:23;101300;;;0.91454;34.738
46174;BME280;31897;52.420;13.498;2023-01-31T04:51:24;101300;;;0.87707;34.87657
46174;BME280;31897;52.420;13.498;2023-01-31T04:54:25;101300;;;0.87674;34.95718
46174;BME280;31897;52.420;13.498;2023-01-31T04:57:26;101300;;;0.9;35.0721
46174;BME280;31897;52.420;13.498;2023-01-31T05:00:26;101300;;;0.91518;35.04316
46174;BME280;31897;52.420;13.498;2023-01-31T05:03:27;101300;;;0.94845;35.08314
46174;BME280;31897;52.420;13.498;2023-01-31T05:06:28;101300;;;0.93553;35.16388
46174;BME280;31897;52.420;13.498;2023-01-31T05:09:29;101300;;;0.93844;35.2387
46174;BME280;31897;52.420;13.498;2023-01-31T05:12:30;101300;;;0.93747;35.31931
46174;BME280;31897;52.420;13.498;2023-01-31T05:15:30;101300;;;1.05181;35.22612
46174;BME280;31897;52.420;13.498;2023-01-31T05:18:31;101300;;;1.14161;35.15615
46174;BME280;31897;52.420;13.498;2023-01-31T05:21:32;101300;;;1.01176;35.26105
46174;BME280;31897;52.420;13.498;2023-01-31T05:24:33;101300;;;1.10285;35.21412
46174;BME280;31897;52.420;13.498;2023-01-31T05:27:34;101300;;;1.15292;35.23669
46174;BME280;31897;52.420;13.498;2023-01-31T05:30:34;101300;;;1.18522;35.26519
46174;BME280;31897;52.420;13.498;2023-01-31T05:33:35;101300;;;1.18651;35.28822
46174;BME280;31897;52.420;13.498;2023-01-31T05:36:36;101300;;;1.20654;35.25346
46174;BME280;31897;52.420;13.498;2023-01-31T05:39:37;101300;;;1.16358;35.32299
46174;BME280;31897;52.420;13.498;2023-01-31T05:42:38;101300;;;1.12449;35.49039
46174;BME280;31897;52.420;13.498;2023-01-31T05:45:39;101300;;;1.11997;35.61714
46174;BME280;31897;52.420;13.498;2023-01-31T05:48:40;101300;;;1.16228;35.69741
46174;BME280;31897;52.420;13.498;2023-01-31T05:51:41;101300;;;1.17488;35.73763
46174;BME280;31897;52.420;13.498;2023-01-31T05:54:41;101300;;;1.27921;35.68491
46174;BME280;31897;52.420;13.498;2023-01-31T05:57:42;101300;;;1.33671;35.64985
46174;BME280;31897;52.420;13.498;2023-01-31T06:00:43;101300;;;1.36675;35.66112
46174;BME280;31897;52.420;13.498;2023-01-31T06:03:44;101300;;;1.37192;35.75327
46174;BME280;31897;52.420;13.498;2023-01-31T06:06:44;101300;;;1.41326;35.75293
46174;BME280;31897;52.420;13.498;2023-01-31T06:09:45;101300;;;1.45461;35.77564
46174;BME280;31897;52.420;13.498;2023-01-31T06:12:46;101300;;;1.49692;35.79258
46174;BME280;31897;52.420;13.498;2023-01-31T06:15:48;101300;;;1.56508;35.75166
46174;BME280;31897;52.420;13.498;2023-01-31T06:18:49;101300;;;1.59641;35.72833
46174;BME280;31897;52.420;13.498;2023-01-31T06:21:50;101300;;;1.61837;35.74544
46174;BME280;31897;52.420;13.498;2023-01-31T06:24:50;101300;;;1.61482;35.80313
46174;BME280;31897;52.420;13.498;2023-01-31T06:27:51;101300;;;1.62354;35.78576
46174;BME280;31897;52.420;13.498;2023-01-31T06:30:52;101300;;;1.60384;35.80899
46174;BME280;31897;52.420;13.498;2023-01-31T06:33:53;101300;;;1.63355;35.80297
46174;BME280;31897;52.420;13.498;2023-01-31T06:36:53;101300;;;1.651;35.7567
46174;BME280;31897;52.420;13.498;2023-01-31T06:39:54;101300;;;1.68976;35.70447
46174;BME280;31897;52.420;13.498;2023-01-31T06:42:55;101300;;;1.74919;35.57707
46174;BME280;31897;52.420;13.498;2023-01-31T06:45:56;101300;;;1.71851;35.62349
46174;BME280;31897;52.420;13.498;2023-01-31T06:48:56;101300;;;1.76179;35.58273
46174;BME280;31897;52.420;13.498;2023-01-31T06:51:57;101300;;;1.7634;35.61156
46174;BME280;31897;52.420;13.498;2023-01-31T06:54:58;101300;;;1.87032;35.47792
46174;BME280;31897;52.420;13.498;2023-01-31T06:57:59;101300;;;1.74628;35.62324
46174;BME280;31897;52.420;13.498;2023-01-31T07:01:02;101300;;;1.72238;35.78493
46174;BME280;31897;52.420;13.498;2023-01-31T07:04:03;101300;;;1.79603;35.83046
46174;BME280;31897;52.420;13.498;2023-01-31T07:07:04;101300;;;1.67005;36.22935
46174;BME280;31897;52.420;13.498;2023-01-31T07:10:05;101300;;;1.67684;36.31002
46174;BME280;31897;52.420;13.498;2023-01-31T07:13:06;101300;;;1.78408;36.27465
46174;BME280;31897;52.420;13.498;2023-01-31T07:16:07;101300;;;1.85029;36.23956
46174;BME280;31897;52.420;13.498;2023-01-31T07:19:08;101300;;;1.91005;36.23335
46174;BME280;31897;52.420;13.498;2023-01-31T07:22:08;101300;;;1.8616;36.36637
46174;BME280;31897;52.420;13.498;2023-01-31T07:25:09;101300;;;1.89099;36.35462
46174;BME280;31897;52.420;13.498;2023-01-31T07:28:10;101300;;;1.96787;36.34254
46174;BME280;31897;52.420;13.498;2023-01-31T07:31:12;101300;;;2.07737;36.2321
46174;BME280;31897;52.420;13.498;2023-01-31T07:34:13;101300;;;2.17169;36.12748
46174;BME280;31897;52.420;13.498;2023-01-31T07:37:14;101300;;;2.16878;36.13328
46174;BME280;31897;52.420;13.498;2023-01-31T07:40:15;101300;;;2.04281;36.33622
46174;BME280;31897;52.420;13.498;2023-01-31T07:43:16;101300;;;2.16006;36.23725
46174;BME280;31897;52.420;13.498;2023-01-31T07:46:17;101300;;;2.20044;36.19076
46174;BME280;31897;52.420;13.498;2023-01-31T07:49:17;101300;;;2.26052;36.17298
46174;BME280;31897;52.420;13.498;2023-01-31T07:52:18;101300;;;2.20238;36.23116
46174;BME280;31897;52.420;13.498;2023-01-31T07:55:19;101300;;;2.29411;36.1785
46174;BME280;31897;52.420;13.498;2023-01-31T07:58:20;101300;;;2.33513;36.13198
46174;BME280;31897;52.420;13.498;2023-01-31T08:01:21;101300;;;2.41492;36.14868
46174;BME280;31897;52.420;13.498;2023-01-31T08:04:23;101300;;;2.4456;36.06758
46174;BME280;31897;52.420;13.498;2023-01-31T08:07:24;101300;;;2.44786;36.07334
46174;BME280;31897;52.420;13.498;2023-01-31T08:10:25;101300;;;2.41363;36.16024
46174;BME280;31897;52.420;13.498;2023-01-31T08:13:25;101300;;;2.35839;36.25885
46174;BME280;31897;52.420;13.498;2023-01-31T08:16:26;101300;;;2.46886;36.17714
46174;BME280;31897;52.420;13.498;2023-01-31T08:19:27;101300;;;2.58611;36.078
46174;BME280;31897;52.420;13.498;2023-01-31T08:22:28;101300;;;2.75602;35.94368
46174;BME280;31897;52.420;13.498;2023-01-31T08:25:29;101300;;;2.79284;35.75259
46174;BME280;31897;52.420;13.498;2023-01-31T08:28:30;101300;;;2.72566;35.77053
46174;BME280;31897;52.420;13.498;2023-01-31T08:31:30;101300;;;2.72307;35.88615
46174;BME280;31897;52.420;13.498;2023-01-31T08:34:31;101300;;;2.60776;36.30895
46174;BME280;31897;52.420;13.498;2023-01-31T08:37:32;101300;;;2.50181;36.73139
46174;BME280;31897;52.420;13.498;2023-01-31T08:40:33;101300;;;2.60162;36.7192
46174;BME280;31897;52.420;13.498;2023-01-31T08:43:34;101300;;;2.61357;36.78844
46174;BME280;31897;52.420;13.498;2023-01-31T08:46:35;101300;;;2.61551;36.83465
46174;BME280;31897;52.420;13.498;2023-01-31T08:49:36;101300;;;2.64103;36.82293
46174;BME280;31897;52.420;13.498;2023-01-31T08:52:37;101300;;;2.61099;36.89823
46174;BME280;31897;52.420;13.498;2023-01-31T08:55:38;101300;;;2.63812;36.87495
46174;BME280;31897;52.420;13.498;2023-01-31T08:58:39;101300;;;2.66331;36.85746
46174;BME280;31897;52.420;13.498;2023-01-31T09:01:40;101300;;;2.76571;36.68921
46174;BME280;31897;52.420;13.498;2023-01-31T09:04:41;101300;;;2.77152;36.66028
46174;BME280;31897;52.420;13.498;2023-01-31T09:07:42;101300;;;2.72598;36.70682
46174;BME280;31897;52.420;13.498;2023-01-31T09:10:43;101300;;;2.85034;36.53257
46174;BME280;31897;52.420;13.498;2023-01-31T09:13:49;101300;;;3.00668;36.47362
46174;BME280;31897;52.420;13.498;2023-01-31T09:16:50;101300;;;3.03446;36.28256
46174;BME280;31897;52.420;13.498;2023-01-31T09:19:51;101300;;;3.04996;36.25352
46174;BME280;31897;52.420;13.498;2023-01-31T09:22:52;101300;;;2.99182;36.1788
46174;BME280;31897;52.420;13.498;2023-01-31T09:25:52;101300;;;2.99343;36.18457
46174;BME280;31897;52.420;13.498;2023-01-31T09:28:53;101300;;;3.03575;36.14953
46174;BME280;31897;52.420;13.498;2023-01-31T09:31:54;101300;;;3.11004;36.05058
46174;BME280;31897;52.420;13.498;2023-01-31T09:34:55;101300;;;3.16076;35.96337
46174;BME280;31897;52.420;13.498;2023-01-31T09:37:57;101300;;;3.19597;35.89942
46174;BME280;31897;52.420;13.498;2023-01-31T09:40:58;101300;;;3.29836;35.8175
46174;BME280;31897;52.420;13.498;2023-01-31T09:44:00;101300;;;3.39236;35.66035
46174;BME280;31897;52.420;13.498;2023-01-31T09:47:04;101300;;;3.4014;35.4692
46174;BME280;31897;52.420;13.498;2023-01-31T09:50:11;101200;;;3.42724;35.42842
46174;BME280;31897;52.420;13.498;2023-01-31T09:53:18;101200;;;3.47602;35.23104
46174;BME280;31897;52.420;13.498;2023-01-31T09:56:22;101200;;;3.56808;35.2185
46174;BME280;31897;52.420;13.498;2023-01-31T09:59:24;101200;;;3.6918;34.93329
46174;BME280;31897;52.420;13.498;2023-01-31T10:02:30;101200;;;3.83328;34.82738
46174;BME280;31897;52.420;13.498;2023-01-31T10:05:36;101200;;;3.89497;34.65274
46174;BME280;31897;52.420;13.498;2023-01-31T10:08:41;101200;;;3.98962;34.54144
46174;BME280;31897;52.420;13.498;2023-01-31T10:11:45;101200;;;4.05034;34.4595
46174;BME280;31897;52.420;13.498;2023-01-31T10:14:48;101200;;;4.07942;34.39534
46174;BME280;31897;52.420;13.498;2023-01-31T10:17:52;101200;;;4.13239;34.30185
46174;BME280;31897;52.420;13.498;2023-01-31T10:20:55;101200;;;4.22833;34.2484
46174;BME280;31897;52.420;13.498;2023-01-31T10:23:58;101200;;;4.26063;34.05067
46174;BME280;31897;52.420;13.498;2023-01-31T10:27:03;101200;;;4.3388;33.93934
46174;BME280;31897;52.420;13.498;2023-01-31T10:30:06;101200;;;4.34817;33.84052
46174;BME280;31897;52.420;13.498;2023-01-31T10:33:16;101200;;;4.23866;33.76659
46174;BME280;31897;52.420;13.498;2023-01-31T10:36:23;101200;;;4.17858;33.82546
46174;BME280;31897;52.420;13.498;2023-01-31T10:39:25;101200;;;4.12335;33.84363
46174;BME280;31897;52.420;13.498;2023-01-31T10:42:29;101200;;;3.98122;34.01379
46174;BME280;31897;52.420;13.498;2023-01-31T10:45:31;101200;;;3.9473;34.18822
46174;BME280;31897;52.420;13.498;2023-01-31T10:48:31;101200;;;3.81939;34.61306
46174;BME280;31897;52.420;13.498;2023-01-31T10:51:37;101200;;;3.77481;34.90918
46174;BME280;31897;52.420;13.498;2023-01-31T10:54:45;101200;;;3.78773;34.92063
46174;BME280;31897;52.420;13.498;2023-01-31T10:57:49;101100;;;3.86816;34.94872
46174;BME280;31897;52.420;13.498;2023-01-31T11:00:50;101100;;;3.94569;34.91886
46174;BME280;31897;52.420;13.498;2023-01-31T11:03:52;101100;;;3.94633;34.84348
46174;BME280;31897;52.420;13.498;2023-01-31T11:06:53;101100;;;3.97185;34.69242
46174;BME280;31897;52.420;13.498;2023-01-31T11:09:54;101100;;;3.93793;34.71022
46174;BME280;31897;52.420;13.498;2023-01-31T11:12:55;101100;;;4.082;34.72593
46174;BME280;31897;52.420;13.498;2023-01-31T11:15:56;101100;;;4.15985;34.51036
46174;BME280;31897;52.420;13.498;2023-01-31T11:18:58;101100;;;4.15759;34.41176
46174;BME280;31897;52.420;13.498;2023-01-31T11:21:59;101100;;;4.15662;34.37697
46174;BME280;31897;52.420;13.498;2023-01-31T11:25:02;101100;;;4.1521;34.46405
46174;BME280;31897;52.420;13.498;2023-01-31T11:28:04;101100;;;4.06811;34.47088
46174;BME280;31897;52.420;13.498;2023-01-31T11:31:16;101100;;;4.04324;34.54659
46174;BME280;31897;52.420;13.498;2023-01-31T11:34:20;101100;;;3.97024;34.69244
46174;BME280;31897;52.420;13.498;2023-01-31T11:37:21;101100;;;3.91468;35.05835
46174;BME280;31897;52.420;13.498;2023-01-31T11:40:26;101000;;;3.86719;35.24435
46174;BME280;31897;52.420;13.498;2023-01-31T11:43:29;101000;;;3.96894;35.39402
46174;BME280;31897;52.420;13.498;2023-01-31T11:46:30;101000;;;4.05067;35.32941
46174;BME280;31897;52.420;13.498;2023-01-31T11:49:32;101000;;;4.04098;35.34692
46174;BME280;31897;52.420;13.498;2023-01-31T11:52:34;101000;;;4.00415;35.49223
46174;BME280;31897;52.420;13.498;2023-01-31T11:55:36;101000;;;3.98283;35.48085
46174;BME280;31897;52.420;13.498;2023-01-31T11:58:37;101000;;;3.94956;35.59132
46174;BME280;31897;52.420;13.498;2023-01-31T12:01:43;101000;;;3.91791;35.4641
46174;BME280;31897;52.420;13.498;2023-01-31T12:04:44;101000;;;3.86655;35.42404
46174;BME280;31897;52.420;13.498;2023-01-31T12:07:46;101000;;;3.85976;35.42991
46174;BME280;31897;52.420;13.498;2023-01-31T12:10:47;101000;;;3.80776;35.23338
46174;BME280;31897;52.420;13.498;2023-01-31T12:13:48;101000;;;3.82165;35.08834
46174;BME280;31897;52.420;13.498;2023-01-31T12:16:49;100900;;;3.81034;35.12324
46174;BME280;31897;52.420;13.498;2023-01-31T12:19:59;100900;;;3.82423;35.08831
46174;BME280;31897;52.420;13.498;2023-01-31T12:23:07;100900;;;3.7241;35.25164
46174;BME280;31897;52.420;13.498;2023-01-31T12:26:13;100900;;;3.79387;35.33785
46174;BME280;31897;52.420;13.498;2023-01-31T12:29:21;100900;;;3.80033;35.38994
46174;BME280;31897;52.420;13.498;2023-01-31T12:32:30;100900;;;3.74735;35.57589
46174;BME280;31897;52.420;13.498;2023-01-31T12:35:39;100900;;;3.68824;35.83136
46174;BME280;31897;52.420;13.498;2023-01-31T12:38:48;100900;;;3.61395;35.97683
46174;BME280;31897;52.420;13.498;2023-01-31T12:41:56;100900;;;3.63074;36.09253
46174;BME280;31897;52.420;13.498;2023-01-31T12:45:02;100900;;;3.61136;36.31276
46174;BME280;31897;52.420;13.498;2023-01-31T12:48:16;100900;;;3.63301;36.44
46174;BME280;31897;52.420;13.498;2023-01-31T12:51:26;100900;;;3.67338;36.60765
46174;BME280;31897;52.420;13.498;2023-01-31T12:54:38;100900;;;3.69599;36.76386
46174;BME280;31897;52.420;13.498;2023-01-31T12:57:45;100900;;;3.62751;36.92646
46174;BME280;31897;52.420;13.498;2023-01-31T13:00:51;100900;;;3.50671;37.32665
46174;BME280;31897;52.420;13.498;2023-01-31T13:03:58;100900;;;3.3859;37.63399
46174;BME280;31897;52.420;13.498;2023-01-31T13:07:02;100900;;;3.35973;37.90603
46174;BME280;31897;52.420;13.498;2023-01-31T13:10:04;100900;;;3.28544;38.20132
46174;BME280;31897;52.420;13.498;2023-01-31T13:13:09;100900;;;3.24119;38.30556
46174;BME280;31897;52.420;13.498;2023-01-31T13:16:13;100800;;;3.09131;38.47946
46174;BME280;31897;52.420;13.498;2023-01-31T13:19:17;100800;;;3.0364;38.7397
46174;BME280;31897;52.420;13.498;2023-01-31T13:22:21;100800;;;3.01798;38.77441
46174;BME280;31897;52.420;13.498;2023-01-31T13:25:33;100800;;;3.03833;38.77437
46174;BME280;31897;52.420;13.498;2023-01-31T13:28:38;100800;;;2.90719;38.83242
46174;BME280;31897;52.420;13.498;2023-01-31T13:31:43;100800;;;2.86294;39.05202
46174;BME280;31897;52.420;13.498;2023-01-31T13:34:47;100800;;;2.96695;38.9652
46174;BME280;31897;52.420;13.498;2023-01-31T13:37:52;100800;;;2.9831;38.94207
46174;BME280;31897;52.420;13.498;2023-01-31T13:40:55;100800;;;2.99376;38.97672
46174;BME280;31897;52.420;13.498;2023-01-31T13:43:57;100800;;;2.98794;38.9305
46174;BME280;31897;52.420;13.498;2023-01-31T13:46:59;100800;;;2.94821;38.97679
46174;BME280;31897;52.420;13.498;2023-01-31T13:50:03;100800;;;2.96243;39.08077
46174;BME280;31897;52.420;13.498;2023-01-31T13:53:10;100800;;;2.92334;39.19059
46174;BME280;31897;52.420;13.498;2023-01-31T13:56:16;100800;;;2.99408;39.13273
46174;BME280;31897;52.420;13.498;2023-01-31T13:59:20;100800;;;3.01411;39.2425
46174;BME280;31897;52.420;13.498;2023-01-31T14:02:21;100800;;;2.83419;39.44482
46174;BME280;31897;52.420;13.498;2023-01-31T14:05:57;100800;;;2.9957;39.25985
46174;BME280;31897;52.420;13.498;2023-01-31T14:08:58;100800;;;2.99796;39.41008
46174;BME280;31897;52.420;13.498;2023-01-31T14:11:59;100800;;;2.94078;39.55453
46174;BME280;31897;52.420;13.498;2023-01-31T14:15:00;100800;;;2.95952;39.69317
46174;BME280;31897;52.420;13.498;2023-01-31T14:18:02;100800;;;2.90881;39.86068
46174;BME280;31897;52.420;13.498;2023-01-31T14:24:55;100800;;;2.82644;40.31104
46174;BME280;31897;52.420;13.498;2023-01-31T14:28:00;100800;;;2.89588;40.28227
46174;BME280;31897;52.420;13.498;2023-01-31T14:31:08;100800;;;2.8694;40.36885
46174;BME280;31897;52.420;13.498;2023-01-31T14:34:13;100800;;;2.80964;40.65165
46174;BME280;31897;52.420;13.498;2023-01-31T14:37:17;100800;;;2.8442;40.66328
46174;BME280;31897;52.420;13.498;2023-01-31T14:40:22;100800;;;2.81739;40.69785
46174;BME280;31897;52.420;13.498;2023-01-31T14:43:28;100800;;;2.86391;40.7557
46174;BME280;31897;52.420;13.498;2023-01-31T14:46:39;100800;;;2.9466;40.86563
46174;BME280;31897;52.420;13.498;2023-01-31T14:49:50;100800;;;2.91397;41.1427
46174;BME280;31897;52.420;13.498;2023-01-31T14:52:58;100800;;;2.92011;41.16581
46174;BME280;31897;52.420;13.498;2023-01-31T14:56:06;100800;;;2.93529;41.28712
46174;BME280;31897;52.420;13.498;2023-01-31T14:59:18;100800;;;2.9915;41.27
46174;BME280;31897;52.420;13.498;2023-01-31T15:02:37;100800;;;3.028;41.24126
46174;BME280;31897;52.420;13.498;2023-01-31T15:05:41;100800;;;3.04706;41.30486
46174;BME280;31897;52.420;13.498;2023-01-31T15:08:43;100800;;;3.12296;41.12029
46174;BME280;31897;52.420;13.498;2023-01-31T15:11:44;100800;;;3.09325;41.01045
46174;BME280;31897;52.420;13.498;2023-01-31T15:14:45;100800;;;3.12846;40.94123
46174;BME280;31897;52.420;13.498;2023-01-31T15:17:47;100800;;;3.07322;40.88331
46174;BME280;31897;52.420;13.498;2023-01-31T15:20:49;100800;;;3.10035;40.96426
46174;BME280;31897;52.420;13.498;2023-01-31T15:23:50;100800;;;3.13104;40.92968
46174;BME280;31897;52.420;13.498;2023-01-31T15:26:52;100800;;;3.12232;40.84878